createdAt,value
2018-03-21T00:00:42.244Z,4.1
2018-03-21T00:01:44.746Z,4
2018-03-21T00:02:47.109Z,4
2018-03-21T00:03:49.474Z,4
2018-03-21T00:04:52.096Z,4.1
2018-03-21T00:05:54.460Z,4
2018-03-21T00:06:57.114Z,4.1
2018-03-21T00:07:59.488Z,4.1
2018-03-21T00:09:02.419Z,4
2018-03-21T00:10:04.791Z,4.1
2018-03-21T00:11:07.164Z,4.3
2018-03-21T00:12:09.533Z,4.1
2018-03-21T00:13:11.887Z,4
2018-03-21T00:14:14.267Z,4
2018-03-21T00:15:16.915Z,4
2018-03-21T00:16:19.276Z,4.1
2018-03-21T00:17:21.734Z,4.1
2018-03-21T00:18:24.413Z,4.1
2018-03-21T00:19:26.775Z,4.1
2018-03-21T00:20:29.321Z,4.1
2018-03-21T00:21:31.689Z,4
2018-03-21T00:22:34.056Z,4
2018-03-21T00:23:36.641Z,4.1
2018-03-21T00:24:39.001Z,4
2018-03-21T00:25:41.369Z,4.1
2018-03-21T00:26:43.882Z,4.1
2018-03-21T00:27:46.526Z,4.1
2018-03-21T00:28:49.170Z,4.1
2018-03-21T00:29:52.130Z,4.1
2018-03-21T00:30:54.491Z,4.2
2018-03-21T00:31:57.145Z,4.1
2018-03-21T00:32:59.539Z,4.1
2018-03-21T00:34:01.907Z,4
2018-03-21T00:35:04.284Z,4
2018-03-21T00:36:07.621Z,4
2018-03-21T00:37:10.261Z,4
2018-03-21T00:38:12.923Z,4
2018-03-21T00:39:15.277Z,4
2018-03-21T00:40:17.968Z,4
2018-03-21T00:41:20.615Z,4
2018-03-21T00:42:22.978Z,4.1
2018-03-21T00:43:25.624Z,4.1
2018-03-21T00:44:27.995Z,4.3
2018-03-21T00:45:30.650Z,4.1
2018-03-21T00:46:33.023Z,4.2
2018-03-21T00:47:35.393Z,4
2018-03-21T00:48:37.766Z,4
2018-03-21T00:49:40.137Z,4
2018-03-21T00:50:42.510Z,4
2018-03-21T00:51:44.876Z,3.9
2018-03-21T00:52:47.252Z,4.1
2018-03-21T00:53:50.182Z,4.1
2018-03-21T00:54:52.551Z,4.2
2018-03-21T00:55:54.906Z,4.1
2018-03-21T00:56:57.267Z,4
2018-03-21T00:57:59.642Z,4
2018-03-21T00:59:02.011Z,4
2018-03-21T01:00:04.378Z,4.1
2018-03-21T01:01:06.743Z,4.1
2018-03-21T01:02:09.110Z,4.1
2018-03-21T01:03:11.495Z,4.1
2018-03-21T01:04:13.858Z,4
2018-03-21T01:05:16.227Z,4.2
2018-03-21T01:06:18.587Z,4
2018-03-21T01:07:20.970Z,4
2018-03-21T01:08:23.329Z,4
2018-03-21T01:09:25.701Z,4
2018-03-21T01:10:28.069Z,4.1
2018-03-21T01:11:30.427Z,4
2018-03-21T01:12:32.810Z,3.9
2018-03-21T01:13:35.186Z,4
2018-03-21T01:14:37.548Z,3.9
2018-03-21T01:15:39.955Z,4
2018-03-21T01:16:42.565Z,4
2018-03-21T01:17:44.933Z,4.1
2018-03-21T01:18:47.302Z,4
2018-03-21T01:19:49.659Z,4.1
2018-03-21T01:20:52.025Z,4
2018-03-21T01:21:54.400Z,4
2018-03-21T01:22:56.877Z,4
2018-03-21T01:23:59.237Z,4
2018-03-21T01:25:01.890Z,4
2018-03-21T01:26:04.295Z,4
2018-03-21T01:27:06.657Z,4.1
2018-03-21T01:28:09.319Z,4
2018-03-21T01:29:11.679Z,4.1
2018-03-21T01:30:14.058Z,4
2018-03-21T01:31:16.698Z,4
2018-03-21T01:32:19.573Z,4
2018-03-21T01:33:21.937Z,4
2018-03-21T01:34:24.314Z,4
2018-03-21T01:35:26.767Z,4
2018-03-21T01:36:29.130Z,4.1
2018-03-21T01:37:31.527Z,4
2018-03-21T01:38:33.982Z,4
2018-03-21T01:39:36.639Z,4
2018-03-21T01:40:39.002Z,4
2018-03-21T01:41:41.405Z,4
2018-03-21T01:42:43.769Z,4
2018-03-21T01:43:46.143Z,4
2018-03-21T01:44:48.532Z,4.1
2018-03-21T01:45:50.908Z,4
2018-03-21T01:46:53.273Z,4
2018-03-21T01:47:55.653Z,4
2018-03-21T01:48:58.020Z,4
2018-03-21T01:50:00.969Z,3.9
2018-03-21T01:51:03.340Z,4
2018-03-21T01:52:05.981Z,4
2018-03-21T01:53:08.952Z,3.9
2018-03-21T01:54:11.307Z,4
2018-03-21T01:55:13.675Z,4
2018-03-21T01:56:16.050Z,4
2018-03-21T01:57:18.699Z,4
2018-03-21T01:58:21.061Z,4
2018-03-21T01:59:23.725Z,4.1
2018-03-21T02:00:26.076Z,4
2018-03-21T02:01:28.459Z,3.9
2018-03-21T02:02:31.113Z,3.9
2018-03-21T02:03:33.472Z,4.1
2018-03-21T02:04:35.844Z,3.9
2018-03-21T02:05:38.226Z,4
2018-03-21T02:06:40.976Z,4.1
2018-03-21T02:07:43.343Z,4
2018-03-21T02:08:45.720Z,4
2018-03-21T02:09:48.483Z,3.9
2018-03-21T02:10:51.146Z,4
2018-03-21T02:11:53.518Z,4
2018-03-21T02:12:55.891Z,3.9
2018-03-21T02:13:58.265Z,3.9
2018-03-21T02:15:00.912Z,4
2018-03-21T02:16:03.557Z,3.9
2018-03-21T02:17:05.938Z,4.1
2018-03-21T02:18:08.287Z,4
2018-03-21T02:19:10.657Z,4.1
2018-03-21T02:20:13.019Z,3.9
2018-03-21T02:21:15.392Z,4
2018-03-21T02:22:18.040Z,3.9
2018-03-21T02:23:20.408Z,3.9
2018-03-21T02:24:22.772Z,3.8
2018-03-21T02:25:25.140Z,3.9
2018-03-21T02:26:27.780Z,4
2018-03-21T02:27:30.142Z,3.9
2018-03-21T02:28:32.508Z,4
2018-03-21T02:29:34.870Z,4
2018-03-21T02:30:37.579Z,3.9
2018-03-21T02:31:40.252Z,4
2018-03-21T02:32:42.608Z,3.9
2018-03-21T02:33:45.351Z,3.9
2018-03-21T02:34:48.004Z,4
2018-03-21T02:35:50.368Z,3.9
2018-03-21T02:36:52.736Z,3.9
2018-03-21T02:37:55.106Z,4
2018-03-21T02:38:57.729Z,4
2018-03-21T02:40:00.089Z,3.9
2018-03-21T02:41:02.440Z,4
2018-03-21T02:42:05.480Z,4
2018-03-21T02:43:07.848Z,4.1
2018-03-21T02:44:10.206Z,3.9
2018-03-21T02:45:13.225Z,3.9
2018-03-21T02:46:15.582Z,3.8
2018-03-21T02:47:17.946Z,3.9
2018-03-21T02:48:20.495Z,3.9
2018-03-21T02:49:22.851Z,4.1
2018-03-21T02:50:25.224Z,4
2018-03-21T02:51:27.590Z,4.2
2018-03-21T02:52:30.043Z,3.9
2018-03-21T02:53:32.409Z,4
2018-03-21T02:54:34.918Z,3.8
2018-03-21T02:55:37.385Z,3.9
2018-03-21T02:56:40.752Z,3.9
2018-03-21T02:57:43.417Z,3.8
2018-03-21T02:58:46.851Z,3.8
2018-03-21T02:59:49.208Z,3.8
2018-03-21T03:00:52.637Z,3.9
2018-03-21T03:01:55.029Z,3.9
2018-03-21T03:02:57.672Z,4
2018-03-21T03:04:00.347Z,3.9
2018-03-21T03:05:03.009Z,3.9
2018-03-21T03:06:05.636Z,3.8
2018-03-21T03:07:08.547Z,3.8
2018-03-21T03:08:11.370Z,3.9
2018-03-21T03:09:13.860Z,3.8
2018-03-21T03:10:16.964Z,3.8
2018-03-21T03:11:19.624Z,3.9
2018-03-21T03:12:22.753Z,3.8
2018-03-21T03:13:25.287Z,3.9
2018-03-21T03:14:28.631Z,3.9
2018-03-21T03:15:31.794Z,3.9
2018-03-21T03:16:34.176Z,3.9
2018-03-21T03:17:37.743Z,3.9
2018-03-21T03:18:40.429Z,3.9
2018-03-21T03:19:43.082Z,4.1
2018-03-21T03:20:45.736Z,4
2018-03-21T03:21:48.095Z,4.1
2018-03-21T03:22:50.462Z,3.9
2018-03-21T03:23:52.816Z,3.9
2018-03-21T03:24:55.181Z,3.8
2018-03-21T03:25:57.544Z,3.8
2018-03-21T03:26:59.917Z,3.8
2018-03-21T03:28:02.852Z,3.8
2018-03-21T03:29:05.502Z,4
2018-03-21T03:30:08.177Z,3.9
2018-03-21T03:31:10.552Z,4
2018-03-21T03:32:13.237Z,3.9
2018-03-21T03:33:15.996Z,4
2018-03-21T03:34:18.286Z,4
2018-03-21T03:35:20.635Z,3.9
2018-03-21T03:36:23.008Z,3.9
2018-03-21T03:37:25.374Z,3.8
2018-03-21T03:38:28.013Z,3.9
2018-03-21T03:39:30.678Z,3.8
2018-03-21T03:40:33.021Z,3.9
2018-03-21T03:41:35.392Z,3.8
2018-03-21T03:42:37.760Z,3.9
2018-03-21T03:43:40.124Z,3.9
2018-03-21T03:44:42.500Z,3.9
2018-03-21T03:45:44.863Z,3.9
2018-03-21T03:46:47.222Z,3.8
2018-03-21T03:47:49.610Z,3.8
2018-03-21T03:48:52.264Z,3.8
2018-03-21T03:49:54.621Z,3.8
2018-03-21T03:50:56.991Z,3.9
2018-03-21T03:51:59.360Z,3.8
2018-03-21T03:53:02.287Z,3.9
2018-03-21T03:54:04.651Z,3.9
2018-03-21T03:55:07.020Z,3.9
2018-03-21T03:56:09.391Z,3.9
2018-03-21T03:57:11.754Z,3.8
2018-03-21T03:58:14.137Z,3.8
2018-03-21T03:59:16.787Z,3.8
2018-03-21T04:00:19.445Z,3.9
2018-03-21T04:01:21.813Z,3.8
2018-03-21T04:02:24.173Z,3.8
2018-03-21T04:03:26.532Z,3.9
2018-03-21T04:04:28.898Z,3.8
2018-03-21T04:05:31.271Z,3.9
2018-03-21T04:06:34.214Z,3.8
2018-03-21T04:07:36.576Z,3.9
2018-03-21T04:08:38.936Z,3.8
2018-03-21T04:09:41.299Z,3.8
2018-03-21T04:10:43.670Z,3.9
2018-03-21T04:11:46.030Z,3.9
2018-03-21T04:12:48.676Z,4
2018-03-21T04:13:51.046Z,3.9
2018-03-21T04:14:53.411Z,3.9
2018-03-21T04:15:56.083Z,3.8
2018-03-21T04:16:58.451Z,3.8
2018-03-21T04:18:00.812Z,3.8
2018-03-21T04:19:03.177Z,3.8
2018-03-21T04:20:05.548Z,4
2018-03-21T04:21:07.911Z,3.9
2018-03-21T04:22:10.560Z,3.9
2018-03-21T04:23:12.976Z,3.8
2018-03-21T04:24:15.289Z,3.8
2018-03-21T04:25:17.660Z,3.8
2018-03-21T04:26:20.032Z,3.8
2018-03-21T04:27:22.708Z,3.7
2018-03-21T04:28:25.069Z,3.8
2018-03-21T04:29:27.437Z,3.9
2018-03-21T04:30:29.803Z,3.9
2018-03-21T04:31:32.157Z,3.9
2018-03-21T04:32:34.528Z,3.8
2018-03-21T04:33:36.897Z,3.8
2018-03-21T04:34:39.260Z,3.8
2018-03-21T04:35:41.625Z,3.8
2018-03-21T04:36:44.300Z,3.9
2018-03-21T04:37:46.648Z,3.9
2018-03-21T04:38:49.012Z,3.9
2018-03-21T04:39:51.659Z,3.8
2018-03-21T04:40:54.328Z,3.9
2018-03-21T04:41:56.695Z,3.8
2018-03-21T04:42:59.065Z,3.8
2018-03-21T04:44:01.428Z,3.8
2018-03-21T04:45:04.082Z,3.8
2018-03-21T04:46:06.448Z,3.8
2018-03-21T04:47:09.094Z,3.8
2018-03-21T04:48:11.457Z,4.1
2018-03-21T04:49:13.823Z,3.8
2018-03-21T04:50:16.186Z,3.9
2018-03-21T04:51:18.855Z,3.9
2018-03-21T04:52:21.221Z,3.9
2018-03-21T04:53:23.874Z,3.9
2018-03-21T04:54:26.238Z,3.9
2018-03-21T04:55:28.599Z,3.8
2018-03-21T04:56:31.265Z,3.8
2018-03-21T04:57:33.621Z,3.8
2018-03-21T04:58:36.032Z,4
2018-03-21T04:59:38.357Z,4
2018-03-21T05:00:40.717Z,3.9
2018-03-21T05:01:43.085Z,3.8
2018-03-21T05:02:45.731Z,3.8
2018-03-21T05:03:48.387Z,3.8
2018-03-21T05:04:50.760Z,3.8
2018-03-21T05:05:53.402Z,3.8
2018-03-21T05:06:55.764Z,3.8
2018-03-21T05:07:58.131Z,3.8
2018-03-21T05:09:00.498Z,3.9
2018-03-21T05:10:03.145Z,4
2018-03-21T05:11:05.820Z,3.9
2018-03-21T05:12:08.186Z,3.9
2018-03-21T05:13:10.563Z,3.9
2018-03-21T05:14:12.922Z,3.8
2018-03-21T05:15:15.570Z,3.9
2018-03-21T05:16:17.936Z,3.8
2018-03-21T05:17:20.298Z,3.8
2018-03-21T05:18:22.974Z,3.8
2018-03-21T05:19:25.336Z,4
2018-03-21T05:20:27.697Z,4
2018-03-21T05:21:30.355Z,3.9
2018-03-21T05:22:32.709Z,3.9
2018-03-21T05:23:35.663Z,3.9
2018-03-21T05:24:38.034Z,4
2018-03-21T05:25:40.694Z,3.9
2018-03-21T05:26:43.053Z,3.9
2018-03-21T05:27:45.715Z,4
2018-03-21T05:28:48.072Z,3.9
2018-03-21T05:29:50.447Z,3.8
2018-03-21T05:30:52.815Z,4
2018-03-21T05:31:55.173Z,4
2018-03-21T05:32:57.827Z,4
2018-03-21T05:34:00.192Z,3.9
2018-03-21T05:35:02.844Z,4
2018-03-21T05:36:05.209Z,3.9
2018-03-21T05:37:07.853Z,3.9
2018-03-21T05:38:10.223Z,3.8
2018-03-21T05:39:12.599Z,3.9
2018-03-21T05:40:14.970Z,3.9
2018-03-21T05:41:17.636Z,3.9
2018-03-21T05:42:19.990Z,4
2018-03-21T05:43:22.345Z,4
2018-03-21T05:44:24.720Z,4.1
2018-03-21T05:45:27.675Z,3.9
2018-03-21T05:46:30.024Z,3.9
2018-03-21T05:47:32.395Z,4
2018-03-21T05:48:34.762Z,3.9
2018-03-21T05:49:37.123Z,3.8
2018-03-21T05:50:39.493Z,4
2018-03-21T05:51:42.160Z,4
2018-03-21T05:52:44.528Z,4
2018-03-21T05:53:46.887Z,4.1
2018-03-21T05:54:49.539Z,4
2018-03-21T05:55:51.923Z,3.9
2018-03-21T05:56:54.287Z,3.9
2018-03-21T05:57:56.654Z,3.9
2018-03-21T05:58:59.015Z,3.8
2018-03-21T06:00:01.387Z,3.9
2018-03-21T06:01:03.759Z,4.1
2018-03-21T06:02:06.129Z,4.1
2018-03-21T06:03:08.484Z,4
2018-03-21T06:04:10.851Z,3.9
2018-03-21T06:05:13.219Z,4
2018-03-21T06:06:15.591Z,4
2018-03-21T06:07:17.959Z,3.9
2018-03-21T06:08:20.612Z,3.9
2018-03-21T06:09:23.264Z,4.1
2018-03-21T06:10:25.638Z,4
2018-03-21T06:11:27.988Z,4.1
2018-03-21T06:12:30.360Z,4.1
2018-03-21T06:13:32.721Z,3.9
2018-03-21T06:14:35.095Z,3.9
2018-03-21T06:15:37.461Z,3.9
2018-03-21T06:16:39.829Z,3.9
2018-03-21T06:17:42.186Z,4
2018-03-21T06:18:44.557Z,4.2
2018-03-21T06:19:46.933Z,4
2018-03-21T06:20:49.592Z,4
2018-03-21T06:21:51.996Z,4
2018-03-21T06:22:54.706Z,4.1
2018-03-21T06:23:57.073Z,4
2018-03-21T06:24:59.433Z,4
2018-03-21T06:26:02.107Z,4
2018-03-21T06:27:04.465Z,4.1
2018-03-21T06:28:06.844Z,4
2018-03-21T06:29:09.201Z,4.1
2018-03-21T06:30:11.578Z,4.2
2018-03-21T06:31:13.938Z,4.2
2018-03-21T06:32:16.308Z,4
2018-03-21T06:33:18.678Z,4.1
2018-03-21T06:34:21.037Z,4.1
2018-03-21T06:35:23.409Z,4.1
2018-03-21T06:36:26.056Z,4.2
2018-03-21T06:37:28.414Z,4.2
2018-03-21T06:38:31.086Z,4.1
2018-03-21T06:39:33.436Z,4.1
2018-03-21T06:40:35.799Z,4.1
2018-03-21T06:41:38.171Z,4.1
2018-03-21T06:42:40.530Z,4.1
2018-03-21T06:43:42.904Z,4.1
2018-03-21T06:44:45.277Z,4.3
2018-03-21T06:45:47.630Z,4.1
2018-03-21T06:46:50.012Z,4.3
2018-03-21T06:47:52.388Z,4.1
2018-03-21T06:48:54.758Z,4.1
2018-03-21T06:49:57.118Z,4.1
2018-03-21T06:50:59.486Z,4.1
2018-03-21T06:52:01.852Z,4.1
2018-03-21T06:53:04.208Z,4.3
2018-03-21T06:54:06.580Z,4.1
2018-03-21T06:55:08.952Z,4.3
2018-03-21T06:56:11.329Z,4.2
2018-03-21T06:57:13.706Z,4.1
2018-03-21T06:58:16.358Z,4.1
2018-03-21T06:59:19.324Z,4.2
2018-03-21T07:00:21.692Z,4.1
2018-03-21T07:01:24.053Z,4.2
2018-03-21T07:02:26.415Z,4.2
2018-03-21T07:03:29.369Z,4.3
2018-03-21T07:04:31.732Z,4.2
2018-03-21T07:05:34.105Z,4.1
2018-03-21T07:06:36.752Z,4.2
2018-03-21T07:07:39.118Z,4.2
2018-03-21T07:08:41.488Z,4.2
2018-03-21T07:09:43.901Z,4.2
2018-03-21T07:10:46.232Z,4.3
2018-03-21T07:11:48.601Z,4.3
2018-03-21T07:12:50.971Z,4.3
2018-03-21T07:13:53.344Z,4.3
2018-03-21T07:14:55.706Z,4.3
2018-03-21T07:15:58.079Z,4.2
2018-03-21T07:17:00.451Z,4.3
2018-03-21T07:18:03.095Z,4.4
2018-03-21T07:19:05.474Z,4.3
2018-03-21T07:20:08.152Z,4.3
2018-03-21T07:21:10.523Z,4.3
2018-03-21T07:22:12.888Z,4.3
2018-03-21T07:23:15.254Z,4.3
2018-03-21T07:24:17.623Z,4.3
2018-03-21T07:25:20.004Z,4.3
2018-03-21T07:26:22.647Z,4.3
2018-03-21T07:27:25.314Z,4.5
2018-03-21T07:28:27.965Z,4.4
2018-03-21T07:29:30.326Z,4.4
2018-03-21T07:30:32.691Z,4.4
2018-03-21T07:31:35.068Z,4.4
2018-03-21T07:32:37.433Z,4.4
2018-03-21T07:33:39.811Z,4.4
2018-03-21T07:34:42.188Z,4.3
2018-03-21T07:35:44.543Z,4.4
2018-03-21T07:36:46.927Z,4.4
2018-03-21T07:37:49.298Z,4.4
2018-03-21T07:38:51.992Z,4.5
2018-03-21T07:39:54.366Z,4.4
2018-03-21T07:40:56.739Z,4.4
2018-03-21T07:41:59.384Z,4.4
2018-03-21T07:43:02.047Z,4.4
2018-03-21T07:44:04.744Z,4.3
2018-03-21T07:45:07.504Z,4.4
2018-03-21T07:46:09.822Z,4.4
2018-03-21T07:47:12.474Z,4.5
2018-03-21T07:48:14.844Z,4.5
2018-03-21T07:49:17.208Z,4.5
2018-03-21T07:50:19.608Z,4.5
2018-03-21T07:51:21.972Z,4.5
2018-03-21T07:52:24.616Z,4.4
2018-03-21T07:53:26.990Z,4.4
2018-03-21T07:54:29.633Z,4.5
2018-03-21T07:55:32.007Z,4.6
2018-03-21T07:56:34.388Z,4.6
2018-03-21T07:57:36.748Z,4.5
2018-03-21T07:58:39.120Z,4.5
2018-03-21T07:59:41.493Z,4.5
2018-03-21T08:00:46.917Z,4.5
2018-03-21T08:01:49.346Z,4.5
2018-03-21T08:02:52.070Z,4.5
2018-03-21T08:03:54.500Z,4.5
2018-03-21T08:04:56.928Z,4.6
2018-03-21T08:05:59.348Z,4.5
2018-03-21T08:07:01.797Z,4.5
2018-03-21T08:08:04.518Z,4.5
2018-03-21T08:09:07.805Z,4.6
2018-03-21T08:10:10.529Z,4.5
2018-03-21T08:11:13.237Z,4.5
2018-03-21T08:12:15.951Z,4.5
2018-03-21T08:13:18.383Z,4.6
2018-03-21T08:14:20.799Z,4.5
2018-03-21T08:15:23.226Z,4.5
2018-03-21T08:16:25.940Z,4.5
2018-03-21T08:17:28.368Z,4.7
2018-03-21T08:18:30.807Z,4.7
2018-03-21T08:19:33.234Z,4.6
2018-03-21T08:20:35.660Z,4.7
2018-03-21T08:21:38.216Z,4.5
2018-03-21T08:22:40.649Z,4.6
2018-03-21T08:23:43.072Z,4.6
2018-03-21T08:24:45.506Z,4.5
2018-03-21T08:25:48.529Z,4.6
2018-03-21T08:26:50.965Z,4.5
2018-03-21T08:27:53.399Z,4.7
2018-03-21T08:28:55.828Z,4.7
2018-03-21T08:29:58.262Z,4.7
2018-03-21T08:31:00.693Z,4.6
2018-03-21T08:32:03.171Z,4.6
2018-03-21T08:33:05.842Z,4.6
2018-03-21T08:34:08.274Z,4.6
2018-03-21T08:35:10.704Z,4.6
2018-03-21T08:36:13.138Z,4.6
2018-03-21T08:37:15.923Z,4.6
2018-03-21T08:38:18.359Z,4.6
2018-03-21T08:39:21.544Z,4.6
2018-03-21T08:40:24.354Z,4.7
2018-03-21T08:41:27.084Z,4.7
2018-03-21T08:42:29.511Z,4.7
2018-03-21T08:43:31.977Z,4.6
2018-03-21T08:44:34.413Z,4.6
2018-03-21T08:45:36.837Z,4.6
2018-03-21T08:46:39.589Z,4.7
2018-03-21T08:47:42.406Z,4.7
2018-03-21T08:48:46.363Z,4.8
2018-03-21T08:49:48.926Z,4.7
2018-03-21T08:50:51.644Z,4.7
2018-03-21T08:51:54.359Z,4.7
2018-03-21T08:52:56.804Z,4.7
2018-03-21T08:53:59.298Z,4.7
2018-03-21T08:55:01.735Z,4.7
2018-03-21T08:56:04.244Z,4.8
2018-03-21T08:57:07.096Z,4.8
2018-03-21T08:58:09.539Z,4.7
2018-03-21T08:59:12.036Z,4.8
2018-03-21T09:00:14.464Z,4.8
2018-03-21T09:01:16.908Z,4.7
2018-03-21T09:02:19.351Z,4.7
2018-03-21T09:03:21.791Z,4.7
2018-03-21T09:04:24.214Z,4.7
2018-03-21T09:05:26.640Z,4.8
2018-03-21T09:06:29.102Z,4.9
2018-03-21T09:07:31.584Z,4.7
2018-03-21T09:08:33.978Z,4.7
2018-03-21T09:09:36.741Z,4.7
2018-03-21T09:10:39.184Z,4.8
2018-03-21T09:11:41.612Z,4.7
2018-03-21T09:12:44.369Z,4.8
2018-03-21T09:13:46.816Z,4.8
2018-03-21T09:14:49.265Z,4.9
2018-03-21T09:15:51.715Z,4.7
2018-03-21T09:16:54.136Z,4.8
2018-03-21T09:17:56.888Z,4.7
2018-03-21T09:18:59.328Z,4.8
2018-03-21T09:20:01.764Z,4.7
2018-03-21T09:21:04.193Z,4.9
2018-03-21T09:22:06.636Z,4.8
2018-03-21T09:23:09.145Z,4.8
2018-03-21T09:24:11.865Z,4.8
2018-03-21T09:25:14.296Z,4.8
2018-03-21T09:26:16.723Z,4.8
2018-03-21T09:27:19.353Z,4.8
2018-03-21T09:28:22.067Z,4.8
2018-03-21T09:29:24.776Z,4.8
2018-03-21T09:30:27.212Z,4.9
2018-03-21T09:31:29.649Z,5
2018-03-21T09:32:32.387Z,4.9
2018-03-21T09:33:34.858Z,4.9
2018-03-21T09:34:37.314Z,4.9
2018-03-21T09:35:40.031Z,4.8
2018-03-21T09:36:42.531Z,4.8
2018-03-21T09:37:44.967Z,4.8
2018-03-21T09:38:47.893Z,4.8
2018-03-21T09:39:50.341Z,5
2018-03-21T09:40:52.766Z,4.9
2018-03-21T09:41:55.184Z,4.9
2018-03-21T09:42:57.619Z,4.9
2018-03-21T09:44:00.059Z,5
2018-03-21T09:45:02.781Z,4.9
2018-03-21T09:46:05.495Z,4.9
2018-03-21T09:47:08.258Z,4.9
2018-03-21T09:48:10.739Z,5
2018-03-21T09:49:13.403Z,5
2018-03-21T09:50:16.135Z,5.1
2018-03-21T09:51:18.558Z,5.1
2018-03-21T09:52:20.998Z,5
2018-03-21T09:53:23.439Z,5.1
2018-03-21T09:54:25.884Z,4.9
2018-03-21T09:55:28.306Z,4.9
2018-03-21T09:56:30.755Z,4.9
2018-03-21T09:57:33.182Z,5
2018-03-21T09:58:35.616Z,5
2018-03-21T09:59:38.064Z,5
2018-03-21T10:00:40.521Z,5
2018-03-21T10:01:43.233Z,4.9
2018-03-21T10:02:45.673Z,4.9
2018-03-21T10:03:48.102Z,5
2018-03-21T10:04:50.549Z,4.9
2018-03-21T10:05:53.061Z,5
2018-03-21T10:06:55.496Z,5
2018-03-21T10:07:57.919Z,5
2018-03-21T10:09:00.653Z,5
2018-03-21T10:10:03.085Z,5
2018-03-21T10:11:05.531Z,4.9
2018-03-21T10:12:07.963Z,4.9
2018-03-21T10:13:10.396Z,5
2018-03-21T10:14:12.827Z,5.1
2018-03-21T10:15:15.270Z,4.9
2018-03-21T10:16:18.005Z,5
2018-03-21T10:17:20.500Z,4.9
2018-03-21T10:18:22.932Z,5
2018-03-21T10:19:25.670Z,5
2018-03-21T10:20:28.971Z,5
2018-03-21T10:21:31.716Z,5.1
2018-03-21T10:22:34.157Z,5.1
2018-03-21T10:23:36.591Z,5.1
2018-03-21T10:24:39.048Z,5.2
2018-03-21T10:25:41.485Z,5
2018-03-21T10:26:44.043Z,5
2018-03-21T10:27:46.773Z,5
2018-03-21T10:28:49.216Z,5
2018-03-21T10:29:51.653Z,5
2018-03-21T10:30:54.339Z,5
2018-03-21T10:31:56.779Z,5.1
2018-03-21T10:32:59.226Z,5.1
2018-03-21T10:34:01.673Z,5.1
2018-03-21T10:35:04.694Z,5.1
2018-03-21T10:36:07.145Z,5.1
2018-03-21T10:37:09.868Z,5
2018-03-21T10:38:12.308Z,5.2
2018-03-21T10:39:14.754Z,5.2
2018-03-21T10:40:17.196Z,5.1
2018-03-21T10:41:19.639Z,5.1
2018-03-21T10:42:22.078Z,5.1
2018-03-21T10:43:24.517Z,5
2018-03-21T10:44:26.958Z,5.1
2018-03-21T10:45:29.412Z,5.1
2018-03-21T10:46:31.865Z,5.1
2018-03-21T10:47:34.294Z,5.1
2018-03-21T10:48:37.016Z,5.1
2018-03-21T10:49:39.459Z,5.2
2018-03-21T10:50:42.186Z,5.1
2018-03-21T10:51:44.632Z,5
2018-03-21T10:52:47.409Z,5.2
2018-03-21T10:53:49.847Z,5.2
2018-03-21T10:54:52.594Z,5.1
2018-03-21T10:55:55.337Z,5.1
2018-03-21T10:56:57.775Z,5.1
2018-03-21T10:58:00.219Z,5.1
2018-03-21T10:59:02.673Z,5.1
2018-03-21T11:00:05.091Z,5.2
2018-03-21T11:01:07.543Z,5.2
2018-03-21T11:02:09.992Z,5.2
2018-03-21T11:03:12.724Z,5.1
2018-03-21T11:04:15.175Z,5.2
2018-03-21T11:05:17.613Z,5.2
2018-03-21T11:06:20.341Z,5.1
2018-03-21T11:07:23.077Z,5.2
2018-03-21T11:08:25.809Z,5.2
2018-03-21T11:09:28.533Z,5.1
2018-03-21T11:10:30.986Z,5.2
2018-03-21T11:11:33.419Z,5.1
2018-03-21T11:12:35.860Z,5.2
2018-03-21T11:13:38.313Z,5.1
2018-03-21T11:14:40.741Z,5
2018-03-21T11:15:43.183Z,5
2018-03-21T11:16:46.490Z,5.2
2018-03-21T11:17:48.935Z,5.1
2018-03-21T11:18:51.380Z,5.1
2018-03-21T11:19:53.799Z,5.1
2018-03-21T11:20:56.245Z,5
2018-03-21T11:21:58.701Z,5
2018-03-21T11:23:01.145Z,5.1
2018-03-21T11:24:03.590Z,5.1
2018-03-21T11:25:06.022Z,5.1
2018-03-21T11:26:08.461Z,5
2018-03-21T11:27:10.910Z,5
2018-03-21T11:28:13.331Z,5
2018-03-21T11:29:15.764Z,5
2018-03-21T11:30:18.517Z,5.1
2018-03-21T11:31:21.232Z,5.1
2018-03-21T11:32:23.809Z,5
2018-03-21T11:33:26.538Z,5
2018-03-21T11:34:28.966Z,5
2018-03-21T11:35:31.761Z,5
2018-03-21T11:36:34.211Z,4.9
2018-03-21T11:37:36.931Z,5
2018-03-21T11:38:39.370Z,5
2018-03-21T11:39:41.811Z,4.9
2018-03-21T11:40:44.254Z,5
2018-03-21T11:41:46.694Z,5
2018-03-21T11:42:49.135Z,4.9
2018-03-21T11:43:51.556Z,4.9
2018-03-21T11:44:54.588Z,5
2018-03-21T11:45:57.059Z,5
2018-03-21T11:46:59.564Z,4.9
2018-03-21T11:48:02.286Z,5
2018-03-21T11:49:04.762Z,5
2018-03-21T11:50:07.201Z,5.1
2018-03-21T11:51:09.656Z,5
2018-03-21T11:52:12.147Z,4.9
2018-03-21T11:53:14.586Z,5
2018-03-21T11:54:17.014Z,5
2018-03-21T11:55:19.557Z,5.1
2018-03-21T11:56:22.543Z,5
2018-03-21T11:57:24.972Z,5
2018-03-21T11:58:27.414Z,5
2018-03-21T11:59:29.859Z,5
2018-03-21T12:00:32.290Z,5
2018-03-21T12:01:35.014Z,5
2018-03-21T12:02:37.475Z,5
2018-03-21T12:03:40.192Z,4.9
2018-03-21T12:04:42.637Z,5
2018-03-21T12:05:45.083Z,5
2018-03-21T12:06:47.618Z,5
2018-03-21T12:07:50.057Z,4.9
2018-03-21T12:08:52.492Z,4.9
2018-03-21T12:09:54.929Z,4.9
2018-03-21T12:10:57.367Z,5
2018-03-21T12:12:00.407Z,5
2018-03-21T12:13:02.897Z,5.1
2018-03-21T12:14:05.341Z,5
2018-03-21T12:15:07.794Z,4.9
2018-03-21T12:16:10.530Z,5
2018-03-21T12:17:13.243Z,4.9
2018-03-21T12:18:15.697Z,4.9
2018-03-21T12:19:18.141Z,4.9
2018-03-21T12:20:20.591Z,4.9
2018-03-21T12:21:23.026Z,5
2018-03-21T12:22:25.467Z,5
2018-03-21T12:23:27.938Z,4.9
2018-03-21T12:24:30.451Z,4.8
2018-03-21T12:25:33.458Z,4.9
2018-03-21T12:26:35.896Z,4.9
2018-03-21T12:27:38.607Z,4.9
2018-03-21T12:28:41.048Z,5
2018-03-21T12:29:43.488Z,4.9
2018-03-21T12:30:46.247Z,5
2018-03-21T12:31:48.679Z,4.9
2018-03-21T12:32:51.136Z,4.9
2018-03-21T12:33:53.552Z,5
2018-03-21T12:34:55.998Z,4.8
2018-03-21T12:35:58.436Z,4.8
2018-03-21T12:37:01.173Z,4.9
2018-03-21T12:38:03.601Z,4.8
2018-03-21T12:39:06.035Z,4.9
2018-03-21T12:40:08.751Z,4.9
2018-03-21T12:41:11.184Z,4.9
2018-03-21T12:42:13.609Z,4.9
2018-03-21T12:43:16.060Z,4.8
2018-03-21T12:44:18.574Z,4.8
2018-03-21T12:45:20.990Z,4.8
2018-03-21T12:46:23.427Z,4.9
2018-03-21T12:47:26.159Z,4.8
2018-03-21T12:48:28.876Z,4.8
2018-03-21T12:49:31.609Z,4.9
2018-03-21T12:50:34.036Z,4.9
2018-03-21T12:51:36.462Z,4.7
2018-03-21T12:52:38.944Z,4.8
2018-03-21T12:53:41.793Z,4.7
2018-03-21T12:54:44.879Z,4.8
2018-03-21T12:55:47.970Z,4.8
2018-03-21T12:56:50.723Z,4.7
2018-03-21T12:57:53.156Z,4.7
2018-03-21T12:58:55.605Z,4.7
2018-03-21T12:59:58.030Z,4.8
2018-03-21T13:01:00.476Z,4.8
2018-03-21T13:02:03.210Z,4.7
2018-03-21T13:03:08.208Z,4.8
2018-03-21T13:04:10.712Z,4.7
2018-03-21T13:05:14.566Z,4.8
2018-03-21T13:06:17.557Z,4.7
2018-03-21T13:07:20.203Z,4.7
2018-03-21T13:08:22.769Z,4.7
2018-03-21T13:09:25.289Z,4.7
2018-03-21T13:10:27.696Z,4.7
2018-03-21T13:11:30.212Z,4.7
2018-03-21T13:12:32.894Z,4.8
2018-03-21T13:13:35.349Z,4.8
2018-03-21T13:14:37.779Z,4.8
2018-03-21T13:15:40.252Z,4.8
2018-03-21T13:16:43.055Z,4.7
2018-03-21T13:17:45.855Z,4.8
2018-03-21T13:18:48.303Z,4.7
2018-03-21T13:19:50.822Z,4.7
2018-03-21T13:20:53.464Z,4.8
2018-03-21T13:21:55.977Z,4.7
2018-03-21T13:22:59.164Z,4.7
2018-03-21T13:24:01.718Z,4.7
2018-03-21T13:25:05.084Z,4.8
2018-03-21T13:26:07.691Z,4.9
2018-03-21T13:27:10.627Z,4.7
2018-03-21T13:28:13.180Z,4.7
2018-03-21T13:29:15.650Z,4.7
2018-03-21T13:30:18.095Z,4.8
2018-03-21T13:31:20.827Z,4.8
2018-03-21T13:32:23.864Z,4.7
2018-03-21T13:33:27.065Z,4.8
2018-03-21T13:34:30.939Z,4.8
2018-03-21T13:35:33.821Z,4.8
2018-03-21T13:36:36.694Z,4.7
2018-03-21T13:37:39.317Z,4.7
2018-03-21T13:38:41.855Z,4.7
2018-03-21T13:39:44.286Z,4.8
2018-03-21T13:40:46.717Z,4.8
2018-03-21T13:41:49.318Z,4.7
2018-03-21T13:42:51.785Z,4.8
2018-03-21T13:43:54.529Z,4.8
2018-03-21T13:44:56.963Z,4.7
2018-03-21T13:45:59.710Z,4.9
2018-03-21T13:47:02.434Z,4.7
2018-03-21T13:48:05.084Z,4.7
2018-03-21T13:49:07.816Z,4.7
2018-03-21T13:50:10.380Z,4.7
2018-03-21T13:51:12.851Z,4.7
2018-03-21T13:52:15.296Z,4.8
2018-03-21T13:53:17.745Z,4.8
2018-03-21T13:54:20.471Z,4.8
2018-03-21T13:55:22.903Z,4.7
2018-03-21T13:56:25.398Z,4.9
2018-03-21T13:57:27.866Z,4.7
2018-03-21T13:58:30.304Z,4.7
2018-03-21T13:59:32.729Z,4.7
2018-03-21T14:00:35.164Z,4.7
2018-03-21T14:01:37.887Z,4.8
2018-03-21T14:02:40.321Z,4.8
2018-03-21T14:03:43.072Z,4.8
2018-03-21T14:04:45.515Z,4.8
2018-03-21T14:05:48.374Z,4.7
2018-03-21T14:06:50.817Z,4.8
2018-03-21T14:07:54.319Z,4.7
2018-03-21T14:08:56.760Z,4.7
2018-03-21T14:09:59.384Z,4.8
2018-03-21T14:11:01.887Z,4.7
2018-03-21T14:12:04.334Z,4.7
2018-03-21T14:13:07.219Z,4.8
2018-03-21T14:14:09.633Z,4.8
2018-03-21T14:15:12.148Z,4.8
2018-03-21T14:16:14.586Z,4.8
2018-03-21T14:17:17.035Z,4.9
2018-03-21T14:18:19.472Z,4.9
2018-03-21T14:19:22.195Z,4.8
2018-03-21T14:20:24.628Z,4.7
2018-03-21T14:21:27.076Z,4.7
2018-03-21T14:22:29.867Z,4.7
2018-03-21T14:23:32.356Z,4.8
2018-03-21T14:24:34.804Z,4.7
2018-03-21T14:25:37.238Z,4.8
2018-03-21T14:26:39.669Z,4.8
2018-03-21T14:27:42.985Z,4.7
2018-03-21T14:28:45.421Z,4.8
2018-03-21T14:29:48.134Z,4.7
2018-03-21T14:30:50.576Z,4.8
2018-03-21T14:31:52.995Z,4.7
2018-03-21T14:32:55.434Z,4.7
2018-03-21T14:33:58.145Z,4.7
2018-03-21T14:35:00.581Z,4.7